Time;durP1;ratioP1;P1;durP2;ratioP2;P2;SDS_P1;SDS_P2;PMS_P1;PMS_P2;Temp;Humidity;BMP_temperature;BMP_pressure;BME280_temperature;BME280_humidity;BME280_pressure;Samples;Min_cycle;Max_cycle;Signal;HPM_P1;HPM_P2
2024/04/23 00:02:45;;;;;;;;;;;;;;;7.08;83.60;100370.94;5513182;26;19947;-78
2024/04/23 00:05:37;;;;;;;;;;;;;;;6.93;84.17;100372.03;5499883;25;19939;-78
2024/04/23 00:08:33;;;;;;;;;;;;;;;6.90;84.49;100372.63;5526650;25;19948;-79
2024/04/23 00:11:25;;;;;;;;;;;;;;;7.01;84.52;100359.72;5493144;26;19951;-78
2024/04/23 00:14:17;;;;;;;;;;;;;;;7.08;84.52;100365.53;5525704;25;19955;-79
2024/04/23 00:17:09;;;;;;;;;;;;;;;7.17;84.29;100358.31;5526587;26;19948;-80
2024/04/23 00:19:58;;;;;;;;;;;;;;;7.08;84.42;100352.81;5518265;25;19947;-78
2024/04/23 00:22:50;;;;;;;;;;;;;;;7.00;84.72;100350.81;5509567;25;20017;-78
2024/04/23 00:25:42;;;;;;;;;;;;;;;6.93;84.75;100347.69;5499729;25;19961;-78
2024/04/23 00:28:34;;;;;;;;;;;;;;;6.99;84.67;100351.09;5517502;25;19947;-78
2024/04/23 00:31:26;;;;;;;;;;;;;;;7.03;84.48;100346.69;5525088;26;20405;-78
2024/04/23 00:34:18;;;;;;;;;;;;;;;7.10;84.20;100345.22;5525947;25;19947;-79
2024/04/23 00:37:10;;;;;;;;;;;;;;;7.28;83.94;100336.16;5525184;25;19951;-78
2024/04/23 00:40:02;;;;;;;;;;;;;;;7.32;83.27;100333.66;5526113;25;20301;-79
2024/04/23 00:42:54;;;;;;;;;;;;;;;7.14;83.60;100327.28;5529466;25;19950;-78
2024/04/23 00:45:52;;;;;;;;;;;;;;;7.01;83.99;100317.25;5523600;25;19947;-78
2024/04/23 00:48:44;;;;;;;;;;;;;;;6.88;84.91;100329.69;5512584;25;19947;-79
2024/04/23 00:51:36;;;;;;;;;;;;;;;6.90;85.15;100329.41;5511975;25;19955;-79
2024/04/23 00:54:27;;;;;;;;;;;;;;;7.09;85.19;100331.97;5535918;25;19947;-78
2024/04/23 00:57:17;;;;;;;;;;;;;;;7.27;84.64;100333.75;5532949;25;20410;-79
2024/04/23 01:00:09;;;;;;;;;;;;;;;7.40;83.55;100330.25;5517874;25;19967;-79
2024/04/23 01:03:01;;;;;;;;;;;;;;;7.32;83.13;100323.63;5499446;25;19947;-78
2024/04/23 01:05:53;;;;;;;;;;;;;;;7.70;82.23;100329.56;5538566;25;19962;-77
2024/04/23 01:08:44;;;;;;;;;;;;;;;7.74;81.76;100325.16;5509682;25;20298;-78
2024/04/23 01:11:34;;;;;;;;;;;;;;;7.80;81.90;100325.03;5517384;25;19947;-78
2024/04/23 01:14:29;;;;;;;;;;;;;;;7.57;81.64;100316.88;5524909;25;19951;-79
2024/04/23 01:17:22;;;;;;;;;;;;;;;7.62;81.08;100307.84;5539265;25;19947;-78
2024/04/23 01:20:15;;;;;;;;;;;;;;;7.42;81.38;100306.38;5509578;26;20282;-78
2024/04/23 01:23:17;;;;;;;;;;;;;;;7.58;81.56;100309.56;5516655;26;19947;-78
2024/04/23 01:26:13;;;;;;;;;;;;;;;7.54;80.98;100309.38;5507788;25;19947;-78
2024/04/23 01:29:05;;;;;;;;;;;;;;;7.55;81.31;100310.19;5531975;25;19946;-79
2024/04/23 01:31:57;;;;;;;;;;;;;;;7.52;81.56;100311.56;5507703;26;19951;-78
2024/04/23 01:34:49;;;;;;;;;;;;;;;7.61;81.40;100307.06;5513261;25;19947;-78
2024/04/23 01:37:42;;;;;;;;;;;;;;;7.37;81.70;100303.78;5515812;26;19940;-79
2024/04/23 01:40:34;;;;;;;;;;;;;;;7.41;82.17;100293.19;5482889;26;19951;-78
2024/04/23 01:43:27;;;;;;;;;;;;;;;7.53;82.81;100302.34;5492483;26;19948;-78
2024/04/23 01:46:19;;;;;;;;;;;;;;;7.34;82.72;100299.00;5507615;25;19955;-78
2024/04/23 01:49:11;;;;;;;;;;;;;;;7.41;83.11;100299.41;5526825;26;20293;-78
2024/04/23 01:52:03;;;;;;;;;;;;;;;7.52;82.62;100289.94;5527842;25;19939;-78
2024/04/23 01:54:53;;;;;;;;;;;;;;;7.48;82.27;100290.84;5527624;25;19951;-79
2024/04/23 01:57:45;;;;;;;;;;;;;;;7.63;82.05;100285.91;5498639;26;19940;-79
2024/04/23 02:00:39;;;;;;;;;;;;;;;7.60;82.46;100283.00;5526939;25;19947;-78
2024/04/23 02:03:32;;;;;;;;;;;;;;;7.45;82.44;100272.53;5520478;26;19952;-78
2024/04/23 02:06:24;;;;;;;;;;;;;;;7.43;82.84;100272.84;5527143;26;19947;-79
2024/04/23 02:09:16;;;;;;;;;;;;;;;7.53;82.86;100275.31;5491930;26;19940;-78
2024/04/23 02:12:13;;;;;;;;;;;;;;;7.59;82.37;100273.28;5515063;26;19952;-80
2024/04/23 02:15:05;;;;;;;;;;;;;;;7.74;82.50;100270.22;5526538;25;20397;-79
2024/04/23 02:17:54;;;;;;;;;;;;;;;7.69;82.36;100263.03;5528186;26;19951;-79
2024/04/23 02:20:47;;;;;;;;;;;;;;;7.62;82.10;100259.94;5526654;25;19951;-79
2024/04/23 02:23:39;;;;;;;;;;;;;;;7.76;81.80;100259.09;5526142;26;19971;-79
2024/04/23 02:26:28;;;;;;;;;;;;;;;7.65;81.60;100255.81;5527898;25;19947;-78
2024/04/23 02:29:20;;;;;;;;;;;;;;;7.72;81.65;100250.78;5526621;25;20385;-79
2024/04/23 02:32:13;;;;;;;;;;;;;;;7.69;81.63;100248.69;5516100;26;19948;-78
2024/04/23 02:35:05;;;;;;;;;;;;;;;7.39;82.18;100242.09;5490159;26;20404;-79
2024/04/23 02:37:57;;;;;;;;;;;;;;;7.44;82.42;100249.28;5528173;26;19963;-79
2024/04/23 02:40:47;;;;;;;;;;;;;;;7.46;82.21;100247.09;5515266;26;20731;-79
2024/04/23 02:44:03;;;;;;;;;;;;;;;7.39;82.32;100247.50;5513905;26;19951;-78
2024/04/23 02:47:23;;;;;;;;;;;;;;;7.44;82.92;100238.47;5483963;25;20404;-78
2024/04/23 02:50:15;;;;;;;;;;;;;;;7.48;83.23;100234.84;5495478;25;19952;-80
2024/04/23 02:53:07;;;;;;;;;;;;;;;7.57;82.59;100238.41;5525707;25;19952;-79
2024/04/23 02:55:59;;;;;;;;;;;;;;;7.84;81.51;100231.28;5526302;25;19970;-79
2024/04/23 02:58:51;;;;;;;;;;;;;;;7.85;80.83;100230.97;5527486;25;19958;-79
2024/04/23 03:01:43;;;;;;;;;;;;;;;7.88;81.20;100233.06;5527519;25;19950;-78
2024/04/23 03:04:35;;;;;;;;;;;;;;;7.87;81.07;100222.56;5527156;25;19947;-79
2024/04/23 03:07:27;;;;;;;;;;;;;;;7.70;81.04;100221.34;5496050;25;19963;-79
2024/04/23 03:10:16;;;;;;;;;;;;;;;7.47;81.76;100211.59;5510826;26;19951;-78
2024/04/23 03:13:08;;;;;;;;;;;;;;;7.36;83.16;100204.84;5526534;26;20300;-79
2024/04/23 03:16:00;;;;;;;;;;;;;;;7.42;83.50;100208.22;5526763;25;19951;-79
2024/04/23 03:18:53;;;;;;;;;;;;;;;7.40;83.64;100213.94;5516850;26;19947;-79
2024/04/23 03:21:57;;;;;;;;;;;;;;;7.47;83.77;100208.88;5527354;25;19949;-79
2024/04/23 03:24:49;;;;;;;;;;;;;;;7.34;84.14;100209.75;5526990;26;20296;-78
2024/04/23 03:27:41;;;;;;;;;;;;;;;7.28;84.54;100202.84;5527552;25;19947;-78
2024/04/23 03:30:33;;;;;;;;;;;;;;;7.31;84.45;100199.56;5527382;25;20281;-79
2024/04/23 03:33:26;;;;;;;;;;;;;;;7.46;83.64;100201.91;5544521;25;19930;-78
2024/04/23 03:36:18;;;;;;;;;;;;;;;7.56;82.61;100190.03;5532898;25;20376;-78
2024/04/23 03:39:10;;;;;;;;;;;;;;;7.42;82.36;100192.78;5514495;25;19952;-78
2024/04/23 03:42:02;;;;;;;;;;;;;;;7.63;82.41;100193.91;5505868;25;19960;-79
2024/04/23 03:44:54;;;;;;;;;;;;;;;7.90;81.30;100182.13;5515241;25;19963;-79
2024/04/23 03:47:46;;;;;;;;;;;;;;;7.93;80.51;100176.09;5526732;26;19947;-78
2024/04/23 03:50:38;;;;;;;;;;;;;;;8.02;80.16;100174.25;5514421;25;19947;-78
2024/04/23 03:53:31;;;;;;;;;;;;;;;8.17;79.37;100173.03;5517724;25;19959;-78
2024/04/23 03:56:23;;;;;;;;;;;;;;;7.84;79.47;100177.94;5524590;26;19952;-79
2024/04/23 03:59:15;;;;;;;;;;;;;;;7.78;80.09;100179.19;5523609;25;19950;-78
2024/04/23 04:08:24;;;;;;;;;;;;;;;7.94;78.84;100161.44;5491236;25;19952;-78
2024/04/23 04:11:16;;;;;;;;;;;;;;;7.92;78.67;100160.97;5525644;26;19955;-80
2024/04/23 04:14:08;;;;;;;;;;;;;;;7.88;78.37;100161.88;5518025;26;21840;-79
2024/04/23 04:17:00;;;;;;;;;;;;;;;7.97;79.28;100160.84;5517518;25;19957;-79
2024/04/23 04:19:52;;;;;;;;;;;;;;;7.95;79.81;100162.25;5512469;26;19961;-79
2024/04/23 04:22:41;;;;;;;;;;;;;;;7.77;79.91;100155.97;5509178;25;19951;-76
2024/04/23 04:25:33;;;;;;;;;;;;;;;7.88;79.94;100156.47;5501924;26;19952;-76
2024/04/23 04:28:26;;;;;;;;;;;;;;;7.56;80.37;100166.50;5512440;26;19947;-76
2024/04/23 04:31:17;;;;;;;;;;;;;;;7.56;81.61;100166.50;5508742;25;19952;-79
2024/04/23 04:34:09;;;;;;;;;;;;;;;7.76;80.80;100165.19;5516190;25;19947;-79
2024/04/23 04:36:59;;;;;;;;;;;;;;;7.75;81.47;100168.97;5523660;25;20483;-77
2024/04/23 04:39:51;;;;;;;;;;;;;;;7.61;80.94;100166.38;5521259;26;19948;-76
2024/04/23 04:42:41;;;;;;;;;;;;;;;7.54;81.50;100166.00;5516740;25;19955;-77
2024/04/23 04:45:33;;;;;;;;;;;;;;;7.53;81.33;100166.28;5490950;25;19954;-76
2024/04/23 04:48:28;;;;;;;;;;;;;;;7.54;81.71;100165.19;5514197;25;19959;-77
2024/04/23 04:51:20;;;;;;;;;;;;;;;7.52;81.22;100168.19;5521692;25;20405;-76
2024/04/23 04:54:12;;;;;;;;;;;;;;;7.98;80.24;100157.00;5522866;25;19953;-77
2024/04/23 04:57:04;;;;;;;;;;;;;;;8.08;78.98;100150.50;5485863;26;19951;-77
2024/04/23 04:59:56;;;;;;;;;;;;;;;7.99;78.71;100153.19;5513685;25;19951;-76
2024/04/23 05:02:48;;;;;;;;;;;;;;;7.90;78.64;100151.56;5523501;26;19947;-77
2024/04/23 05:05:40;;;;;;;;;;;;;;;8.01;78.65;100150.97;5523860;25;19947;-77
2024/04/23 05:08:32;;;;;;;;;;;;;;;7.92;78.74;100150.16;5490839;26;19982;-77
2024/04/23 05:11:24;;;;;;;;;;;;;;;7.79;79.15;100148.31;5525953;25;20389;-79
2024/04/23 05:14:16;;;;;;;;;;;;;;;7.82;79.56;100158.53;5511729;26;20308;-76
2024/04/23 05:17:08;;;;;;;;;;;;;;;7.92;79.02;100152.84;5522807;25;19951;-76
2024/04/23 05:20:00;;;;;;;;;;;;;;;8.19;78.63;100157.25;5510502;25;20401;-76
2024/04/23 05:22:51;;;;;;;;;;;;;;;8.02;78.60;100160.69;5509715;25;19951;-76
2024/04/23 05:25:43;;;;;;;;;;;;;;;8.03;78.77;100156.84;5522080;25;19959;-78
2024/04/23 05:28:35;;;;;;;;;;;;;;;7.94;79.34;100160.63;5491727;26;19963;-76
2024/04/23 05:34:36;;;;;;;;;;;;;;;8.23;78.70;100157.44;5522238;25;20289;-77
2024/04/23 05:37:28;;;;;;;;;;;;;;;8.22;78.65;100145.81;5523231;25;19952;-76
2024/04/23 05:40:20;;;;;;;;;;;;;;;8.32;77.93;100145.56;5512206;25;19951;-76
2024/04/23 05:43:07;;;;;;;;;;;;;;;8.26;77.85;100145.97;5510398;26;19947;-76
2024/04/23 05:45:59;;;;;;;;;;;;;;;8.20;77.88;100142.59;5513071;26;19951;-76
2024/04/23 05:49:08;;;;;;;;;;;;;;;7.81;78.56;100146.09;5519831;26;19951;-77
2024/04/23 05:52:32;;;;;;;;;;;;;;;7.84;78.63;100150.06;5520840;25;20416;-75
2024/04/23 05:55:42;;;;;;;;;;;;;;;8.07;78.95;100148.94;5524027;25;19952;-76
2024/04/23 05:58:34;;;;;;;;;;;;;;;8.13;78.76;100153.88;5522805;26;20442;-77
2024/04/23 06:01:26;;;;;;;;;;;;;;;8.06;78.74;100147.34;5524216;26;19963;-77
2024/04/23 06:04:18;;;;;;;;;;;;;;;7.96;79.36;100144.91;5512015;26;19948;-79
2024/04/23 06:07:10;;;;;;;;;;;;;;;7.88;80.10;100156.47;5524169;25;19967;-79
2024/04/23 06:10:02;;;;;;;;;;;;;;;7.73;80.91;100144.94;5521234;26;20295;-80
2024/04/23 06:12:55;;;;;;;;;;;;;;;7.66;80.44;100155.41;5507676;26;19947;-75
2024/04/23 06:15:45;;;;;;;;;;;;;;;7.73;81.17;100150.34;5519872;25;19948;-76
2024/04/23 06:18:34;;;;;;;;;;;;;;;7.79;81.16;100156.44;5520619;25;19951;-76
2024/04/23 06:21:26;;;;;;;;;;;;;;;8.00;81.56;100164.81;5516250;26;20389;-77
2024/04/23 06:24:15;;;;;;;;;;;;;;;7.74;80.63;100151.16;5516256;25;20397;-75
2024/04/23 06:27:08;;;;;;;;;;;;;;;7.66;80.90;100155.41;5527916;25;20288;-78
2024/04/23 06:30:07;;;;;;;;;;;;;;;7.54;81.52;100163.28;5513773;26;19948;-75
2024/04/23 06:32:59;;;;;;;;;;;;;;;7.63;80.95;100161.44;5514178;26;19951;-78
2024/04/23 06:35:53;;;;;;;;;;;;;;;7.66;81.17;100157.31;5524630;26;19951;-78
2024/04/23 06:38:45;;;;;;;;;;;;;;;7.74;81.21;100168.19;5512407;25;19947;-76
2024/04/23 06:41:37;;;;;;;;;;;;;;;7.81;80.78;100158.84;5525578;25;19961;-77
2024/04/23 06:44:29;;;;;;;;;;;;;;;7.97;80.49;100160.03;5524393;25;20297;-76
2024/04/23 06:47:21;;;;;;;;;;;;;;;7.90;80.42;100159.66;5524411;25;19951;-76
2024/04/23 06:50:13;;;;;;;;;;;;;;;7.88;81.25;100151.06;5513384;25;20007;-79
2024/04/23 06:53:06;;;;;;;;;;;;;;;7.74;81.02;100157.34;5513064;26;19963;-75
2024/04/23 06:55:58;;;;;;;;;;;;;;;7.85;81.24;100152.47;5513810;26;19924;-76
2024/04/23 06:58:50;;;;;;;;;;;;;;;7.68;81.69;100155.09;5512020;26;19948;-76
2024/04/23 07:01:42;;;;;;;;;;;;;;;7.56;82.12;100152.97;5524496;25;19947;-77
2024/04/23 07:04:34;;;;;;;;;;;;;;;7.79;81.92;100155.63;5525765;25;19955;-77
2024/04/23 07:07:26;;;;;;;;;;;;;;;7.76;81.76;100148.13;5500474;26;20393;-77
2024/04/23 07:10:19;;;;;;;;;;;;;;;7.70;82.23;100139.34;5525259;26;19939;-77
2024/04/23 07:13:11;;;;;;;;;;;;;;;7.81;82.11;100139.88;5511807;25;19952;-76
2024/04/23 07:16:03;;;;;;;;;;;;;;;7.71;82.05;100136.34;5503191;25;19924;-75
2024/04/23 07:18:55;;;;;;;;;;;;;;;7.81;82.38;100131.75;5512205;25;19947;-75
2024/04/23 07:21:48;;;;;;;;;;;;;;;7.90;82.17;100133.41;5524155;25;19959;-75
2024/04/23 07:24:40;;;;;;;;;;;;;;;7.93;82.13;100129.25;5509163;26;19947;-77
2024/04/23 07:27:32;;;;;;;;;;;;;;;7.76;82.79;100134.59;5524992;25;19956;-77
2024/04/23 07:30:26;;;;;;;;;;;;;;;7.66;83.30;100131.06;5525073;26;19951;-78
2024/04/23 07:33:18;;;;;;;;;;;;;;;7.77;83.66;100125.38;5498013;26;19951;-78
2024/04/23 07:36:13;;;;;;;;;;;;;;;7.87;83.89;100134.03;5525865;26;19951;-78
2024/04/23 07:39:03;;;;;;;;;;;;;;;7.88;83.22;100119.38;5514303;25;19956;-78
2024/04/23 07:41:54;;;;;;;;;;;;;;;7.78;82.74;100118.84;5512982;26;19947;-78
2024/04/23 07:44:46;;;;;;;;;;;;;;;7.81;82.25;100119.03;5525349;25;19950;-77
2024/04/23 07:47:38;;;;;;;;;;;;;;;8.10;82.70;100110.38;5519716;25;19947;-78
2024/04/23 07:50:30;;;;;;;;;;;;;;;8.14;82.01;100112.16;5491931;25;19951;-77
2024/04/23 07:53:23;;;;;;;;;;;;;;;8.29;82.02;100105.50;5485813;26;19951;-74
2024/04/23 07:56:15;;;;;;;;;;;;;;;8.10;81.92;100111.19;5516908;25;19923;-78
2024/04/23 07:59:07;;;;;;;;;;;;;;;8.06;81.96;100101.31;5486908;26;19960;-78
2024/04/23 08:01:59;;;;;;;;;;;;;;;8.06;82.46;100104.00;5488022;26;19957;-75
2024/04/23 08:04:51;;;;;;;;;;;;;;;7.98;82.64;100102.84;5512150;26;19951;-77
2024/04/23 08:07:43;;;;;;;;;;;;;;;8.18;82.32;100098.78;5497578;26;19947;-76
2024/04/23 08:10:35;;;;;;;;;;;;;;;8.01;82.76;100091.41;5508027;26;19956;-76
2024/04/23 08:13:27;;;;;;;;;;;;;;;7.93;83.57;100092.16;5516238;26;19952;-74
2024/04/23 08:16:19;;;;;;;;;;;;;;;7.87;83.58;100089.94;5488838;26;19964;-77
2024/04/23 08:19:08;;;;;;;;;;;;;;;8.02;83.70;100097.63;5525722;25;19959;-78
2024/04/23 08:22:00;;;;;;;;;;;;;;;8.25;83.63;100091.00;5514475;26;20402;-79
2024/04/23 08:24:50;;;;;;;;;;;;;;;8.28;83.18;100093.06;5513178;25;20472;-78
2024/04/23 08:27:48;;;;;;;;;;;;;;;8.06;82.39;100091.28;5520062;26;19971;-78
2024/04/23 08:30:39;;;;;;;;;;;;;;;8.05;82.01;100089.66;5518891;26;19963;-76
2024/04/23 08:33:31;;;;;;;;;;;;;;;8.16;82.61;100085.56;5465459;26;19960;-78
2024/04/23 08:36:23;;;;;;;;;;;;;;;8.06;81.63;100088.56;5489573;26;19952;-78
2024/04/23 08:39:15;;;;;;;;;;;;;;;8.28;82.31;100093.06;5525697;25;19947;-79
2024/04/23 08:42:10;;;;;;;;;;;;;;;8.33;82.04;100089.47;5515522;26;19952;-77
2024/04/23 08:45:04;;;;;;;;;;;;;;;8.13;83.57;100079.97;5514611;25;19968;-77
2024/04/23 08:47:56;;;;;;;;;;;;;;;8.30;83.04;100084.66;5522979;25;19971;-77
2024/04/23 08:50:48;;;;;;;;;;;;;;;8.28;83.08;100082.22;5494569;25;19950;-78
2024/04/23 08:53:41;;;;;;;;;;;;;;;8.33;83.01;100086.75;5523344;25;19947;-77
2024/04/23 08:56:33;;;;;;;;;;;;;;;8.13;83.18;100082.66;5523571;25;19947;-77
2024/04/23 08:59:28;;;;;;;;;;;;;;;8.26;84.09;100080.97;5523768;26;19959;-77
2024/04/23 09:02:25;;;;;;;;;;;;;;;8.18;84.12;100080.63;5511558;25;19952;-77
2024/04/23 09:05:17;;;;;;;;;;;;;;;8.12;83.42;100070.28;5510671;26;19987;-77
2024/04/23 09:08:10;;;;;;;;;;;;;;;8.18;84.73;100068.97;5522041;25;20388;-79
2024/04/23 09:11:02;;;;;;;;;;;;;;;8.09;85.13;100065.47;5522557;25;19947;-78
2024/04/23 09:13:54;;;;;;;;;;;;;;;8.02;85.53;100063.22;5522634;26;19971;-77
2024/04/23 09:16:46;;;;;;;;;;;;;;;8.35;84.84;100069.06;5523985;25;20285;-77
2024/04/23 09:19:38;;;;;;;;;;;;;;;8.39;84.48;100070.03;5521877;26;19951;-76
2024/04/23 09:22:28;;;;;;;;;;;;;;;8.54;83.72;100064.16;5522639;26;19947;-76
2024/04/23 09:25:20;;;;;;;;;;;;;;;8.52;83.62;100054.75;5523194;25;19967;-76
2024/04/23 09:28:09;;;;;;;;;;;;;;;8.33;83.94;100055.03;5522066;25;20284;-78
2024/04/23 09:31:01;;;;;;;;;;;;;;;8.39;83.98;100059.19;5496704;26;19967;-76
2024/04/23 09:33:57;;;;;;;;;;;;;;;8.47;83.72;100044.88;5521008;25;19951;-76
2024/04/23 09:36:49;;;;;;;;;;;;;;;8.44;83.95;100042.78;5521680;25;19967;-77
2024/04/23 09:39:45;;;;;;;;;;;;;;;8.49;83.81;100039.13;5521909;26;19967;-77
2024/04/23 09:42:37;;;;;;;;;;;;;;;8.30;83.79;100035.91;5491076;26;19994;-77
2024/04/23 09:45:29;;;;;;;;;;;;;;;8.44;84.02;100031.94;5522708;25;19939;-77
2024/04/23 09:48:29;;;;;;;;;;;;;;;8.58;84.07;100032.59;5523371;25;19947;-78
2024/04/23 09:51:22;;;;;;;;;;;;;;;8.90;82.96;100033.22;5523407;25;19951;-77
2024/04/23 09:54:14;;;;;;;;;;;;;;;8.76;82.65;100029.88;5522282;25;19967;-78
2024/04/23 09:57:06;;;;;;;;;;;;;;;8.79;83.29;100029.22;5527023;25;19956;-79
2024/04/23 10:00:06;;;;;;;;;;;;;;;8.65;82.89;100026.69;5516152;26;19952;-78
2024/04/23 10:03:00;;;;;;;;;;;;;;;8.72;82.57;100018.88;5515339;25;19951;-78
2024/04/23 10:05:52;;;;;;;;;;;;;;;8.91;82.01;100024.78;5526518;25;19951;-78
2024/04/23 10:08:45;;;;;;;;;;;;;;;8.97;82.16;100019.97;5522470;25;19951;-78
2024/04/23 10:11:44;;;;;;;;;;;;;;;9.00;81.57;100014.69;5528109;25;19955;-76
2024/04/23 10:14:52;;;;;;;;;;;;;;;8.85;81.71;100007.06;5528399;25;19952;-77
2024/04/23 10:17:47;;;;;;;;;;;;;;;8.87;81.03;99998.63;5526505;25;19954;-77
2024/04/23 10:20:42;;;;;;;;;;;;;;;8.90;81.04;99997.97;5520729;25;19947;-78
2024/04/23 10:23:35;;;;;;;;;;;;;;;9.07;77.93;99980.88;5526751;26;20389;-77
2024/04/23 10:26:28;;;;;;;;;;;;;;;8.95;78.62;99981.53;5528042;25;19955;-78
2024/04/23 10:29:20;;;;;;;;;;;;;;;9.09;79.33;99981.38;5515721;26;19951;-77
2024/04/23 10:32:13;;;;;;;;;;;;;;;9.01;78.53;99972.13;5514848;25;20305;-79
2024/04/23 10:35:04;;;;;;;;;;;;;;;9.25;78.29;99975.06;5527055;26;19947;-78
2024/04/23 10:37:56;;;;;;;;;;;;;;;9.28;79.16;99970.94;5526668;25;20304;-77
2024/04/23 10:40:48;;;;;;;;;;;;;;;9.28;78.82;99965.50;5523627;25;20404;-77
2024/04/23 10:43:38;;;;;;;;;;;;;;;9.23;77.19;99962.97;5500732;25;19947;-76
2024/04/23 10:46:30;;;;;;;;;;;;;;;9.31;76.94;99954.78;5528507;26;19951;-77
2024/04/23 10:49:23;;;;;;;;;;;;;;;9.43;76.26;99957.63;5527999;26;19955;-78
2024/04/23 10:52:15;;;;;;;;;;;;;;;9.68;74.00;99944.25;5527452;25;19940;-76
2024/04/23 10:55:07;;;;;;;;;;;;;;;9.90;70.61;99932.31;5518699;25;19956;-77
2024/04/23 10:57:58;;;;;;;;;;;;;;;10.08;69.20;99931.06;5526044;25;19951;-77
2024/04/23 11:01:06;;;;;;;;;;;;;;;10.11;68.97;99933.88;5511808;25;20397;-78
2024/04/23 11:04:03;;;;;;;;;;;;;;;10.20;68.83;99929.25;5525946;25;19951;-79
2024/04/23 11:07:02;;;;;;;;;;;;;;;10.27;66.58;99925.97;5518464;26;20469;-77
2024/04/23 11:09:57;;;;;;;;;;;;;;;10.29;66.18;99929.97;5513969;26;19947;-78
2024/04/23 11:12:52;;;;;;;;;;;;;;;10.34;66.77;99931.69;5526525;25;19951;-77
2024/04/23 11:15:44;;;;;;;;;;;;;;;10.45;65.92;99918.47;5511213;25;19954;-77
2024/04/23 11:18:42;;;;;;;;;;;;;;;10.38;66.58;99920.94;5526549;26;19948;-76
2024/04/23 11:21:39;;;;;;;;;;;;;;;10.44;66.12;99919.59;5496337;26;19940;-79
2024/04/23 11:24:33;;;;;;;;;;;;;;;10.40;66.05;99914.06;5516119;25;19928;-79
2024/04/23 11:27:26;;;;;;;;;;;;;;;10.50;66.71;99913.63;5515715;26;19948;-76
2024/04/23 11:30:18;;;;;;;;;;;;;;;10.63;65.61;99901.66;5496992;26;19949;-78
2024/04/23 11:33:10;;;;;;;;;;;;;;;10.56;65.57;99912.31;5479032;26;19956;-78
2024/04/23 11:36:02;;;;;;;;;;;;;;;10.69;64.88;99902.25;5478163;26;19951;-78
2024/04/23 11:38:51;;;;;;;;;;;;;;;10.75;64.57;99909.06;5512817;26;19952;-78
2024/04/23 11:41:43;;;;;;;;;;;;;;;10.72;65.33;99904.28;5526906;25;19948;-76
2024/04/23 11:44:35;;;;;;;;;;;;;;;10.82;64.83;99898.41;5525267;25;19951;-77
2024/04/23 11:47:25;;;;;;;;;;;;;;;10.91;63.57;99890.97;5525569;25;19951;-78
2024/04/23 11:50:17;;;;;;;;;;;;;;;10.89;63.72;99889.72;5525322;25;19955;-78
2024/04/23 11:53:07;;;;;;;;;;;;;;;10.96;63.15;99895.41;5511636;25;19956;-78
2024/04/23 11:56:00;;;;;;;;;;;;;;;10.96;63.94;99898.94;5513731;26;19947;-77
2024/04/23 11:58:49;;;;;;;;;;;;;;;10.91;63.88;99907.31;5525905;25;19947;-77
2024/04/23 12:01:39;;;;;;;;;;;;;;;10.83;63.61;99901.94;5494000;26;19952;-79
2024/04/23 12:04:31;;;;;;;;;;;;;;;10.69;64.27;99921.28;5525102;26;19955;-76
2024/04/23 12:07:23;;;;;;;;;;;;;;;10.64;65.23;99922.28;5525294;25;19951;-76
2024/04/23 12:10:27;;;;;;;;;;;;;;;10.44;66.65;99931.28;5527808;26;19947;-79
2024/04/23 12:13:22;;;;;;;;;;;;;;;10.35;67.20;99943.34;5525348;25;19952;-78
2024/04/23 12:16:12;;;;;;;;;;;;;;;10.19;69.21;99951.31;5516852;26;19959;-78
2024/04/23 12:19:04;;;;;;;;;;;;;;;10.35;68.15;99951.50;5513291;26;19959;-79
2024/04/23 12:21:56;;;;;;;;;;;;;;;10.28;69.14;99960.97;5504085;25;19959;-79
2024/04/23 12:24:48;;;;;;;;;;;;;;;10.14;68.92;99965.84;5505303;25;19952;-78
2024/04/23 12:27:44;;;;;;;;;;;;;;;10.15;70.21;99963.94;5510770;25;19955;-79
2024/04/23 12:30:33;;;;;;;;;;;;;;;10.18;71.27;99961.38;5508633;25;19952;-76
2024/04/23 12:33:29;;;;;;;;;;;;;;;10.20;71.75;99969.19;5488157;25;20385;-76
2024/04/23 12:36:21;;;;;;;;;;;;;;;10.00;71.95;99951.72;5486228;25;20038;-78
2024/04/23 12:39:13;;;;;;;;;;;;;;;9.78;73.54;99943.88;5501448;25;19948;-77
2024/04/23 12:42:12;;;;;;;;;;;;;;;10.06;71.54;99936.00;5496937;26;19948;-77
2024/04/23 12:45:05;;;;;;;;;;;;;;;10.03;72.13;99929.34;5498482;25;20504;-78
2024/04/23 12:47:58;;;;;;;;;;;;;;;10.06;73.12;99930.56;5519098;25;19971;-77
2024/04/23 12:50:46;;;;;;;;;;;;;;;10.22;72.73;99935.13;5464889;25;19947;-78
2024/04/23 12:53:35;;;;;;;;;;;;;;;10.31;73.03;99929.59;5486321;25;19947;-77
2024/04/23 12:56:28;;;;;;;;;;;;;;;10.25;73.60;99933.69;5487019;25;19951;-77
2024/04/23 12:59:15;;;;;;;;;;;;;;;10.17;73.87;99931.81;5500338;25;20306;-78
2024/04/23 13:02:07;;;;;;;;;;;;;;;10.21;74.37;99944.38;5488377;25;19948;-79
2024/04/23 13:04:56;;;;;;;;;;;;;;;10.19;75.35;99938.50;5488304;25;19956;-79
2024/04/23 13:07:44;;;;;;;;;;;;;;;10.34;74.46;99936.31;5504172;25;20290;-77
2024/04/23 13:10:36;;;;;;;;;;;;;;;10.48;72.07;99925.97;5491499;25;19967;-77
2024/04/23 13:13:25;;;;;;;;;;;;;;;10.65;69.99;99912.22;5468854;25;19955;-78
2024/04/23 13:16:17;;;;;;;;;;;;;;;10.67;68.62;99921.59;5488340;25;19942;-78
2024/04/23 13:19:04;;;;;;;;;;;;;;;10.66;69.43;99913.81;5488180;25;19947;-77
2024/04/23 13:21:56;;;;;;;;;;;;;;;10.80;69.89;99911.56;5489117;25;19964;-78
2024/04/23 13:24:48;;;;;;;;;;;;;;;10.94;69.05;99917.50;5506497;25;20349;-77
2024/04/23 13:27:40;;;;;;;;;;;;;;;10.97;67.07;99916.03;5504114;25;19943;-77
2024/04/23 13:30:33;;;;;;;;;;;;;;;10.98;67.74;99904.00;5489648;25;19952;-78
2024/04/23 13:33:25;;;;;;;;;;;;;;;10.98;65.83;99907.53;5489980;25;20405;-78
2024/04/23 13:36:12;;;;;;;;;;;;;;;11.09;67.12;99916.03;5490422;26;19940;-77
2024/04/23 13:39:01;;;;;;;;;;;;;;;11.08;66.77;99909.81;5465176;26;19948;-79
2024/04/23 13:41:53;;;;;;;;;;;;;;;10.99;65.37;99908.31;5466142;25;20518;-77
2024/04/23 13:44:46;;;;;;;;;;;;;;;11.07;64.52;99910.94;5490583;25;19956;-78
2024/04/23 13:47:38;;;;;;;;;;;;;;;11.22;65.04;99903.25;5495479;25;20309;-78
2024/04/23 13:50:27;;;;;;;;;;;;;;;11.19;65.23;99907.44;5506589;25;19952;-79
2024/04/23 13:53:17;;;;;;;;;;;;;;;10.94;64.80;99895.72;5490081;26;20397;-77
2024/04/23 13:56:15;;;;;;;;;;;;;;;11.00;63.40;99890.88;5526873;26;19951;-77
2024/04/23 13:59:08;;;;;;;;;;;;;;;10.80;65.23;99889.81;5490864;26;19940;-79
2024/04/23 14:02:03;;;;;;;;;;;;;;;10.83;64.62;99880.97;5507727;25;19967;-79
2024/04/23 14:04:55;;;;;;;;;;;;;;;10.75;65.67;99887.31;5464165;25;19952;-78
2024/04/23 14:07:47;;;;;;;;;;;;;;;10.79;64.53;99882.00;5504402;25;20405;-80
2024/04/23 14:10:40;;;;;;;;;;;;;;;10.88;65.61;99894.34;5464435;25;19948;-79
2024/04/23 14:13:31;;;;;;;;;;;;;;;11.04;65.98;99895.31;5491659;25;19967;-79
2024/04/23 14:16:16;;;;;;;;;;;;;;;11.05;64.66;99894.16;5497443;25;19952;-79
2024/04/23 14:19:08;;;;;;;;;;;;;;;11.07;64.74;99897.34;5491255;25;19955;-79
2024/04/23 14:22:00;;;;;;;;;;;;;;;11.15;64.91;99895.66;5491106;25;19979;-78
2024/04/23 14:24:52;;;;;;;;;;;;;;;10.92;65.35;99910.81;5530687;25;19952;-78
2024/04/23 14:27:44;;;;;;;;;;;;;;;10.97;66.71;99907.88;5490000;25;19952;-78
2024/04/23 14:30:34;;;;;;;;;;;;;;;10.99;66.70;99914.56;5489220;25;19960;-78
2024/04/23 14:33:26;;;;;;;;;;;;;;;10.96;66.43;99915.25;5488501;25;19952;-77
2024/04/23 14:36:18;;;;;;;;;;;;;;;10.97;66.15;99910.59;5504510;26;19975;-78
2024/04/23 14:39:10;;;;;;;;;;;;;;;10.62;69.08;99921.03;5506136;26;19947;-76
2024/04/23 14:41:57;;;;;;;;;;;;;;;10.49;70.31;99924.84;5503103;25;19947;-78
2024/04/23 14:44:49;;;;;;;;;;;;;;;10.60;71.17;99918.66;5506553;25;19950;-79
2024/04/23 14:47:38;;;;;;;;;;;;;;;10.51;70.80;99925.31;5498244;25;19947;-78
2024/04/23 14:50:31;;;;;;;;;;;;;;;10.54;72.28;99919.19;5507027;25;19943;-79
2024/04/23 14:53:20;;;;;;;;;;;;;;;10.35;74.36;99927.84;5519011;25;20371;-79
2024/04/23 14:56:10;;;;;;;;;;;;;;;10.08;77.85;99939.19;5490452;25;19948;-77
2024/04/23 14:59:02;;;;;;;;;;;;;;;10.07;81.23;99943.03;5489239;25;19951;-77
2024/04/23 15:01:54;;;;;;;;;;;;;;;9.87;82.65;99959.00;5493684;25;19952;-79
2024/04/23 15:04:47;;;;;;;;;;;;;;;9.82;83.80;99966.53;5499696;25;19952;-78
2024/04/23 15:07:39;;;;;;;;;;;;;;;9.74;85.99;99975.53;5506717;25;19951;-76
2024/04/23 15:10:29;;;;;;;;;;;;;;;9.58;85.90;99978.00;5491242;25;19948;-78